sensor_id;sensor_type;location;lat;lon;timestamp;pressure;altitude;pressure_sealevel;temperature
74321;BMP280;62738;45.772;4.804;2023-08-06T00:00:37;99512.81;;;22.54
74321;BMP280;62738;45.772;4.804;2023-08-06T00:03:04;99511.78;;;22.43
74321;BMP280;62738;45.772;4.804;2023-08-06T00:05:32;99499.09;;;22.44
74321;BMP280;62738;45.772;4.804;2023-08-06T00:07:59;99499.53;;;22.59
74321;BMP280;62738;45.772;4.804;2023-08-06T00:10:25;99500.00;;;22.51
74321;BMP280;62738;45.772;4.804;2023-08-06T00:12:52;99497.41;;;22.59
74321;BMP280;62738;45.772;4.804;2023-08-06T00:15:19;99491.34;;;22.69
74321;BMP280;62738;45.772;4.804;2023-08-06T00:17:45;99491.91;;;22.63
74321;BMP280;62738;45.772;4.804;2023-08-06T00:20:12;99500.44;;;22.65
74321;BMP280;62738;45.772;4.804;2023-08-06T00:22:39;99500.81;;;22.77
74321;BMP280;62738;45.772;4.804;2023-08-06T00:25:06;99490.75;;;22.72
74321;BMP280;62738;45.772;4.804;2023-08-06T00:27:33;99499.22;;;22.72
74321;BMP280;62738;45.772;4.804;2023-08-06T00:29:59;99494.56;;;22.81
74321;BMP280;62738;45.772;4.804;2023-08-06T00:32:26;99498.25;;;22.87
74321;BMP280;62738;45.772;4.804;2023-08-06T00:34:53;99496.66;;;22.80
74321;BMP280;62738;45.772;4.804;2023-08-06T00:37:19;99502.41;;;22.82
74321;BMP280;62738;45.772;4.804;2023-08-06T00:39:46;99506.75;;;22.87
74321;BMP280;62738;45.772;4.804;2023-08-06T00:42:12;99513.44;;;22.74
74321;BMP280;62738;45.772;4.804;2023-08-06T00:44:39;99508.56;;;22.77
74321;BMP280;62738;45.772;4.804;2023-08-06T00:47:07;99500.94;;;22.81
74321;BMP280;62738;45.772;4.804;2023-08-06T00:49:38;99497.91;;;22.75
74321;BMP280;62738;45.772;4.804;2023-08-06T00:52:06;99502.13;;;22.74
74321;BMP280;62738;45.772;4.804;2023-08-06T00:54:34;99501.28;;;22.70
74321;BMP280;62738;45.772;4.804;2023-08-06T00:57:01;99498.28;;;22.64
74321;BMP280;62738;45.772;4.804;2023-08-06T00:59:29;99506.16;;;22.67
74321;BMP280;62738;45.772;4.804;2023-08-06T01:01:57;99513.28;;;22.46
74321;BMP280;62738;45.772;4.804;2023-08-06T01:04:24;99507.38;;;22.38
74321;BMP280;62738;45.772;4.804;2023-08-06T01:14:54;99511.72;;;21.98
74321;BMP280;62738;45.772;4.804;2023-08-06T01:17:24;99525.84;;;21.98
74321;BMP280;62738;45.772;4.804;2023-08-06T01:19:53;99522.91;;;21.74
74321;BMP280;62738;45.772;4.804;2023-08-06T01:22:20;99521.50;;;21.75
74321;BMP280;62738;45.772;4.804;2023-08-06T01:24:48;99531.72;;;21.84
74321;BMP280;62738;45.772;4.804;2023-08-06T01:27:23;99540.13;;;21.82
74321;BMP280;62738;45.772;4.804;2023-08-06T01:30:20;99541.72;;;21.87
74321;BMP280;62738;45.772;4.804;2023-08-06T01:32:50;99536.53;;;21.60
74321;BMP280;62738;45.772;4.804;2023-08-06T01:35:19;99541.50;;;21.42
74321;BMP280;62738;45.772;4.804;2023-08-06T01:37:48;99547.22;;;21.44
74321;BMP280;62738;45.772;4.804;2023-08-06T01:40:15;99547.16;;;21.42
74321;BMP280;62738;45.772;4.804;2023-08-06T01:42:41;99542.13;;;21.40
74321;BMP280;62738;45.772;4.804;2023-08-06T01:45:09;99546.00;;;21.29
74321;BMP280;62738;45.772;4.804;2023-08-06T01:47:36;99541.13;;;21.32
74321;BMP280;62738;45.772;4.804;2023-08-06T01:50:03;99549.72;;;21.16
74321;BMP280;62738;45.772;4.804;2023-08-06T01:52:29;99559.31;;;21.09
74321;BMP280;62738;45.772;4.804;2023-08-06T01:54:56;99557.88;;;20.90
74321;BMP280;62738;45.772;4.804;2023-08-06T01:57:23;99565.94;;;20.80
74321;BMP280;62738;45.772;4.804;2023-08-06T01:59:50;99557.25;;;20.57
74321;BMP280;62738;45.772;4.804;2023-08-06T02:02:17;99562.84;;;20.72
74321;BMP280;62738;45.772;4.804;2023-08-06T02:04:43;99549.50;;;20.75
74321;BMP280;62738;45.772;4.804;2023-08-06T02:07:10;99552.59;;;20.63
74321;BMP280;62738;45.772;4.804;2023-08-06T02:09:37;99553.31;;;20.64
74321;BMP280;62738;45.772;4.804;2023-08-06T02:12:04;99556.88;;;20.64
74321;BMP280;62738;45.772;4.804;2023-08-06T02:14:30;99551.91;;;20.82
74321;BMP280;62738;45.772;4.804;2023-08-06T02:16:57;99556.75;;;20.80
74321;BMP280;62738;45.772;4.804;2023-08-06T02:19:24;99556.13;;;20.81
74321;BMP280;62738;45.772;4.804;2023-08-06T02:21:50;99563.03;;;20.78
74321;BMP280;62738;45.772;4.804;2023-08-06T02:24:17;99566.13;;;20.67
74321;BMP280;62738;45.772;4.804;2023-08-06T02:26:44;99549.66;;;20.79
74321;BMP280;62738;45.772;4.804;2023-08-06T02:29:11;99550.66;;;20.85
74321;BMP280;62738;45.772;4.804;2023-08-06T02:31:37;99552.59;;;20.81
74321;BMP280;62738;45.772;4.804;2023-08-06T02:34:04;99559.13;;;20.68
74321;BMP280;62738;45.772;4.804;2023-08-06T02:36:30;99558.22;;;20.63
74321;BMP280;62738;45.772;4.804;2023-08-06T02:38:57;99554.34;;;20.37
74321;BMP280;62738;45.772;4.804;2023-08-06T02:41:24;99561.63;;;20.26
74321;BMP280;62738;45.772;4.804;2023-08-06T02:43:52;99555.97;;;20.09
74321;BMP280;62738;45.772;4.804;2023-08-06T02:46:18;99564.53;;;20.11
74321;BMP280;62738;45.772;4.804;2023-08-06T02:48:45;99565.19;;;20.27
74321;BMP280;62738;45.772;4.804;2023-08-06T02:51:12;99559.38;;;20.23
74321;BMP280;62738;45.772;4.804;2023-08-06T02:53:38;99563.16;;;20.29
74321;BMP280;62738;45.772;4.804;2023-08-06T02:56:05;99562.72;;;20.35
74321;BMP280;62738;45.772;4.804;2023-08-06T02:58:32;99558.53;;;20.36
74321;BMP280;62738;45.772;4.804;2023-08-06T03:01:02;99554.66;;;20.45
74321;BMP280;62738;45.772;4.804;2023-08-06T03:03:30;99564.16;;;20.54
74321;BMP280;62738;45.772;4.804;2023-08-06T03:05:57;99569.44;;;20.61
74321;BMP280;62738;45.772;4.804;2023-08-06T03:08:24;99563.06;;;20.61
74321;BMP280;62738;45.772;4.804;2023-08-06T03:10:52;99560.09;;;20.57
74321;BMP280;62738;45.772;4.804;2023-08-06T03:13:19;99572.38;;;20.48
74321;BMP280;62738;45.772;4.804;2023-08-06T03:15:53;99562.50;;;20.64
74321;BMP280;62738;45.772;4.804;2023-08-06T03:18:20;99567.25;;;20.60
74321;BMP280;62738;45.772;4.804;2023-08-06T03:20:48;99562.97;;;20.76
74321;BMP280;62738;45.772;4.804;2023-08-06T03:23:15;99546.22;;;20.80
74321;BMP280;62738;45.772;4.804;2023-08-06T03:25:41;99550.41;;;20.79
74321;BMP280;62738;45.772;4.804;2023-08-06T03:28:08;99550.97;;;20.58
74321;BMP280;62738;45.772;4.804;2023-08-06T03:30:35;99550.09;;;20.71
74321;BMP280;62738;45.772;4.804;2023-08-06T03:33:01;99546.22;;;20.63
74321;BMP280;62738;45.772;4.804;2023-08-06T03:35:28;99549.09;;;20.47
74321;BMP280;62738;45.772;4.804;2023-08-06T03:37:55;99560.97;;;20.28
74321;BMP280;62738;45.772;4.804;2023-08-06T03:40:22;99553.75;;;20.23
74321;BMP280;62738;45.772;4.804;2023-08-06T03:42:49;99566.38;;;20.22
74321;BMP280;62738;45.772;4.804;2023-08-06T03:45:15;99554.72;;;20.29
74321;BMP280;62738;45.772;4.804;2023-08-06T03:47:42;99560.91;;;20.26
74321;BMP280;62738;45.772;4.804;2023-08-06T03:50:09;99553.91;;;20.27
74321;BMP280;62738;45.772;4.804;2023-08-06T03:52:36;99558.66;;;20.22
74321;BMP280;62738;45.772;4.804;2023-08-06T03:55:03;99555.72;;;20.20
74321;BMP280;62738;45.772;4.804;2023-08-06T03:57:30;99567.09;;;20.22
74321;BMP280;62738;45.772;4.804;2023-08-06T03:59:56;99568.06;;;20.29
74321;BMP280;62738;45.772;4.804;2023-08-06T04:02:23;99571.72;;;20.31
74321;BMP280;62738;45.772;4.804;2023-08-06T04:04:49;99582.66;;;20.23
74321;BMP280;62738;45.772;4.804;2023-08-06T04:07:16;99595.63;;;20.30
74321;BMP280;62738;45.772;4.804;2023-08-06T04:09:53;99619.84;;;20.04
74321;BMP280;62738;45.772;4.804;2023-08-06T04:12:21;99649.75;;;19.80
74321;BMP280;62738;45.772;4.804;2023-08-06T04:14:48;99691.88;;;19.78
74321;BMP280;62738;45.772;4.804;2023-08-06T04:17:15;99664.41;;;18.61
74321;BMP280;62738;45.772;4.804;2023-08-06T04:19:41;99652.56;;;18.35
74321;BMP280;62738;45.772;4.804;2023-08-06T04:22:08;99650.91;;;18.17
74321;BMP280;62738;45.772;4.804;2023-08-06T04:24:34;99646.41;;;17.98
74321;BMP280;62738;45.772;4.804;2023-08-06T04:27:01;99650.38;;;18.34
74321;BMP280;62738;45.772;4.804;2023-08-06T04:29:28;99650.09;;;18.41
74321;BMP280;62738;45.772;4.804;2023-08-06T04:31:54;99660.13;;;18.33
74321;BMP280;62738;45.772;4.804;2023-08-06T04:34:21;99652.97;;;18.16
74321;BMP280;62738;45.772;4.804;2023-08-06T04:36:48;99655.25;;;18.06
74321;BMP280;62738;45.772;4.804;2023-08-06T04:39:15;99650.56;;;17.97
74321;BMP280;62738;45.772;4.804;2023-08-06T04:41:41;99650.22;;;17.91
74321;BMP280;62738;45.772;4.804;2023-08-06T04:44:08;99654.34;;;17.76
74321;BMP280;62738;45.772;4.804;2023-08-06T04:46:35;99657.53;;;18.10
74321;BMP280;62738;45.772;4.804;2023-08-06T04:49:04;99669.31;;;18.33
74321;BMP280;62738;45.772;4.804;2023-08-06T04:51:30;99671.50;;;18.35
74321;BMP280;62738;45.772;4.804;2023-08-06T04:53:57;99679.59;;;18.70
74321;BMP280;62738;45.772;4.804;2023-08-06T04:56:24;99680.31;;;18.84
74321;BMP280;62738;45.772;4.804;2023-08-06T04:58:50;99678.03;;;18.80
74321;BMP280;62738;45.772;4.804;2023-08-06T05:01:17;99686.53;;;18.96
74321;BMP280;62738;45.772;4.804;2023-08-06T05:03:44;99690.94;;;18.85
74321;BMP280;62738;45.772;4.804;2023-08-06T05:06:13;99693.16;;;18.73
74321;BMP280;62738;45.772;4.804;2023-08-06T05:08:39;99691.47;;;18.68
74321;BMP280;62738;45.772;4.804;2023-08-06T05:11:06;99697.09;;;18.82
74321;BMP280;62738;45.772;4.804;2023-08-06T05:13:33;99696.25;;;18.66
74321;BMP280;62738;45.772;4.804;2023-08-06T05:15:59;99699.19;;;18.81
74321;BMP280;62738;45.772;4.804;2023-08-06T05:18:26;99713.56;;;18.87
74321;BMP280;62738;45.772;4.804;2023-08-06T05:20:53;99710.41;;;18.68
74321;BMP280;62738;45.772;4.804;2023-08-06T05:23:19;99712.69;;;18.71
74321;BMP280;62738;45.772;4.804;2023-08-06T05:25:46;99716.63;;;18.93
74321;BMP280;62738;45.772;4.804;2023-08-06T05:28:13;99734.34;;;18.96
74321;BMP280;62738;45.772;4.804;2023-08-06T05:30:40;99729.25;;;18.51
74321;BMP280;62738;45.772;4.804;2023-08-06T05:33:07;99731.44;;;18.53
74321;BMP280;62738;45.772;4.804;2023-08-06T05:35:34;99736.66;;;18.72
74321;BMP280;62738;45.772;4.804;2023-08-06T05:38:00;99736.25;;;18.78
74321;BMP280;62738;45.772;4.804;2023-08-06T05:40:27;99726.75;;;18.85
74321;BMP280;62738;45.772;4.804;2023-08-06T05:42:54;99728.84;;;18.71
74321;BMP280;62738;45.772;4.804;2023-08-06T05:45:21;99743.28;;;18.65
74321;BMP280;62738;45.772;4.804;2023-08-06T05:47:48;99751.38;;;18.32
74321;BMP280;62738;45.772;4.804;2023-08-06T05:50:15;99743.00;;;18.59
74321;BMP280;62738;45.772;4.804;2023-08-06T05:52:42;99768.19;;;18.71
74321;BMP280;62738;45.772;4.804;2023-08-06T05:55:09;99756.66;;;18.78
74321;BMP280;62738;45.772;4.804;2023-08-06T05:57:36;99761.22;;;18.85
74321;BMP280;62738;45.772;4.804;2023-08-06T06:00:02;99757.66;;;18.71
74321;BMP280;62738;45.772;4.804;2023-08-06T06:02:32;99766.94;;;19.01
74321;BMP280;62738;45.772;4.804;2023-08-06T06:04:59;99763.06;;;19.08
74321;BMP280;62738;45.772;4.804;2023-08-06T06:07:25;99765.06;;;19.06
74321;BMP280;62738;45.772;4.804;2023-08-06T06:09:52;99774.94;;;18.79
74321;BMP280;62738;45.772;4.804;2023-08-06T06:12:19;99771.31;;;19.04
74321;BMP280;62738;45.772;4.804;2023-08-06T06:14:46;99778.88;;;19.01
74321;BMP280;62738;45.772;4.804;2023-08-06T06:17:12;99782.22;;;19.12
74321;BMP280;62738;45.772;4.804;2023-08-06T06:19:39;99787.31;;;19.15
74321;BMP280;62738;45.772;4.804;2023-08-06T06:22:06;99806.28;;;19.15
74321;BMP280;62738;45.772;4.804;2023-08-06T06:24:32;99805.75;;;18.50
74321;BMP280;62738;45.772;4.804;2023-08-06T06:26:59;99826.22;;;18.14
74321;BMP280;62738;45.772;4.804;2023-08-06T06:29:26;99819.41;;;17.80
74321;BMP280;62738;45.772;4.804;2023-08-06T06:31:53;99825.03;;;18.05
74321;BMP280;62738;45.772;4.804;2023-08-06T06:34:20;99830.13;;;18.34
74321;BMP280;62738;45.772;4.804;2023-08-06T06:36:47;99831.84;;;18.52
74321;BMP280;62738;45.772;4.804;2023-08-06T06:39:13;99815.66;;;18.65
74321;BMP280;62738;45.772;4.804;2023-08-06T06:41:40;99825.75;;;18.83
74321;BMP280;62738;45.772;4.804;2023-08-06T06:44:06;99822.44;;;18.73
74321;BMP280;62738;45.772;4.804;2023-08-06T06:46:33;99815.72;;;18.53
74321;BMP280;62738;45.772;4.804;2023-08-06T06:49:00;99810.84;;;18.67
74321;BMP280;62738;45.772;4.804;2023-08-06T06:51:26;99814.38;;;18.54
74321;BMP280;62738;45.772;4.804;2023-08-06T06:53:53;99811.06;;;18.58
74321;BMP280;62738;45.772;4.804;2023-08-06T06:56:20;99813.75;;;18.69
74321;BMP280;62738;45.772;4.804;2023-08-06T06:58:46;99825.41;;;18.50
74321;BMP280;62738;45.772;4.804;2023-08-06T07:01:13;99820.84;;;18.70
74321;BMP280;62738;45.772;4.804;2023-08-06T07:03:40;99827.44;;;18.88
74321;BMP280;62738;45.772;4.804;2023-08-06T07:06:07;99831.16;;;18.93
74321;BMP280;62738;45.772;4.804;2023-08-06T07:08:33;99828.28;;;19.05
74321;BMP280;62738;45.772;4.804;2023-08-06T07:11:04;99850.88;;;19.20
74321;BMP280;62738;45.772;4.804;2023-08-06T07:13:32;99850.09;;;18.92
74321;BMP280;62738;45.772;4.804;2023-08-06T07:15:59;99860.34;;;18.99
74321;BMP280;62738;45.772;4.804;2023-08-06T07:18:25;99850.84;;;19.07
74321;BMP280;62738;45.772;4.804;2023-08-06T07:20:53;99866.38;;;19.08
74321;BMP280;62738;45.772;4.804;2023-08-06T07:23:21;99857.63;;;19.01
74321;BMP280;62738;45.772;4.804;2023-08-06T07:25:48;99852.44;;;19.10
74321;BMP280;62738;45.772;4.804;2023-08-06T07:28:15;99861.19;;;19.16
74321;BMP280;62738;45.772;4.804;2023-08-06T07:30:43;99855.03;;;18.92
74321;BMP280;62738;45.772;4.804;2023-08-06T07:33:10;99859.22;;;18.91
74321;BMP280;62738;45.772;4.804;2023-08-06T07:35:38;99860.00;;;18.93
74321;BMP280;62738;45.772;4.804;2023-08-06T07:38:04;99862.66;;;19.17
74321;BMP280;62738;45.772;4.804;2023-08-06T07:40:31;99865.56;;;19.19
74321;BMP280;62738;45.772;4.804;2023-08-06T07:42:58;99859.00;;;19.00
74321;BMP280;62738;45.772;4.804;2023-08-06T07:45:24;99869.94;;;19.08
74321;BMP280;62738;45.772;4.804;2023-08-06T07:47:53;99861.50;;;19.08
74321;BMP280;62738;45.772;4.804;2023-08-06T07:50:20;99850.09;;;19.33
74321;BMP280;62738;45.772;4.804;2023-08-06T07:52:47;99848.31;;;19.54
74321;BMP280;62738;45.772;4.804;2023-08-06T07:55:13;99854.69;;;19.54
74321;BMP280;62738;45.772;4.804;2023-08-06T07:57:40;99868.38;;;19.19
74321;BMP280;62738;45.772;4.804;2023-08-06T08:00:07;99861.34;;;18.92
74321;BMP280;62738;45.772;4.804;2023-08-06T08:02:34;99872.81;;;19.24
74321;BMP280;62738;45.772;4.804;2023-08-06T08:05:01;99890.44;;;19.38
74321;BMP280;62738;45.772;4.804;2023-08-06T08:07:27;99877.41;;;19.04
74321;BMP280;62738;45.772;4.804;2023-08-06T08:09:56;99883.56;;;18.86
74321;BMP280;62738;45.772;4.804;2023-08-06T08:12:23;99878.75;;;19.02
74321;BMP280;62738;45.772;4.804;2023-08-06T08:14:50;99884.91;;;18.85
74321;BMP280;62738;45.772;4.804;2023-08-06T08:17:17;99885.63;;;18.86
74321;BMP280;62738;45.772;4.804;2023-08-06T08:19:43;99892.81;;;19.02
74321;BMP280;62738;45.772;4.804;2023-08-06T08:22:10;99894.31;;;19.17
74321;BMP280;62738;45.772;4.804;2023-08-06T08:24:37;99890.97;;;19.21
74321;BMP280;62738;45.772;4.804;2023-08-06T08:27:04;99883.78;;;19.18
74321;BMP280;62738;45.772;4.804;2023-08-06T08:29:30;99876.16;;;19.34
74321;BMP280;62738;45.772;4.804;2023-08-06T08:31:57;99871.22;;;19.62
74321;BMP280;62738;45.772;4.804;2023-08-06T08:34:24;99881.50;;;20.14
74321;BMP280;62738;45.772;4.804;2023-08-06T08:36:51;99880.81;;;20.00
74321;BMP280;62738;45.772;4.804;2023-08-06T08:39:17;99887.41;;;19.90
74321;BMP280;62738;45.772;4.804;2023-08-06T08:41:44;99887.13;;;19.41
74321;BMP280;62738;45.772;4.804;2023-08-06T08:44:12;99884.31;;;19.28
74321;BMP280;62738;45.772;4.804;2023-08-06T08:46:40;99878.44;;;19.51
74321;BMP280;62738;45.772;4.804;2023-08-06T08:49:07;99892.03;;;19.84
74321;BMP280;62738;45.772;4.804;2023-08-06T08:51:34;99894.78;;;19.68
74321;BMP280;62738;45.772;4.804;2023-08-06T08:54:04;99892.97;;;19.88
74321;BMP280;62738;45.772;4.804;2023-08-06T08:56:34;99887.66;;;19.81
74321;BMP280;62738;45.772;4.804;2023-08-06T08:59:01;99887.78;;;19.69
74321;BMP280;62738;45.772;4.804;2023-08-06T09:01:28;99889.28;;;20.15
74321;BMP280;62738;45.772;4.804;2023-08-06T09:03:56;99887.75;;;20.41
74321;BMP280;62738;45.772;4.804;2023-08-06T09:06:25;99886.66;;;20.49
74321;BMP280;62738;45.772;4.804;2023-08-06T09:09:09;99882.75;;;20.56
74321;BMP280;62738;45.772;4.804;2023-08-06T09:11:43;99887.59;;;20.24
74321;BMP280;62738;45.772;4.804;2023-08-06T09:14:11;99885.09;;;20.45
74321;BMP280;62738;45.772;4.804;2023-08-06T09:16:38;99889.84;;;20.57
74321;BMP280;62738;45.772;4.804;2023-08-06T09:19:13;99879.44;;;20.45
74321;BMP280;62738;45.772;4.804;2023-08-06T09:21:40;99883.66;;;20.44
74321;BMP280;62738;45.772;4.804;2023-08-06T09:24:10;99880.84;;;20.60
74321;BMP280;62738;45.772;4.804;2023-08-06T09:26:39;99882.38;;;20.32
74321;BMP280;62738;45.772;4.804;2023-08-06T09:29:06;99878.72;;;20.29
74321;BMP280;62738;45.772;4.804;2023-08-06T09:31:54;99875.47;;;20.51
74321;BMP280;62738;45.772;4.804;2023-08-06T09:34:22;99888.00;;;20.32
74321;BMP280;62738;45.772;4.804;2023-08-06T09:36:50;99894.63;;;20.23
74321;BMP280;62738;45.772;4.804;2023-08-06T09:39:27;99896.78;;;20.09
74321;BMP280;62738;45.772;4.804;2023-08-06T09:41:57;99887.22;;;20.16
74321;BMP280;62738;45.772;4.804;2023-08-06T09:44:24;99901.22;;;19.84
74321;BMP280;62738;45.772;4.804;2023-08-06T09:46:53;99897.84;;;19.88
74321;BMP280;62738;45.772;4.804;2023-08-06T09:49:23;99898.31;;;19.82
74321;BMP280;62738;45.772;4.804;2023-08-06T09:51:51;99905.78;;;19.91
74321;BMP280;62738;45.772;4.804;2023-08-06T09:54:20;99913.94;;;20.15
74321;BMP280;62738;45.772;4.804;2023-08-06T09:56:54;99904.69;;;20.28
74321;BMP280;62738;45.772;4.804;2023-08-06T09:59:23;99905.94;;;20.38
74321;BMP280;62738;45.772;4.804;2023-08-06T10:01:50;99904.94;;;20.63
74321;BMP280;62738;45.772;4.804;2023-08-06T10:04:20;99903.22;;;20.87
74321;BMP280;62738;45.772;4.804;2023-08-06T10:06:53;99908.41;;;20.93
74321;BMP280;62738;45.772;4.804;2023-08-06T10:09:20;99901.94;;;21.06
74321;BMP280;62738;45.772;4.804;2023-08-06T10:11:51;99914.56;;;21.21
74321;BMP280;62738;45.772;4.804;2023-08-06T10:14:24;99909.97;;;20.96
74321;BMP280;62738;45.772;4.804;2023-08-06T10:16:53;99932.59;;;20.82
74321;BMP280;62738;45.772;4.804;2023-08-06T10:19:21;99925.69;;;20.70
74321;BMP280;62738;45.772;4.804;2023-08-06T10:24:58;99926.19;;;20.35
74321;BMP280;62738;45.772;4.804;2023-08-06T10:27:53;99937.25;;;20.31
74321;BMP280;62738;45.772;4.804;2023-08-06T10:30:28;99923.66;;;20.12
74321;BMP280;62738;45.772;4.804;2023-08-06T10:32:59;99922.97;;;20.27
74321;BMP280;62738;45.772;4.804;2023-08-06T10:35:47;99923.38;;;20.51
74321;BMP280;62738;45.772;4.804;2023-08-06T10:38:19;99921.31;;;20.22
74321;BMP280;62738;45.772;4.804;2023-08-06T10:43:35;99915.50;;;20.63
74321;BMP280;62738;45.772;4.804;2023-08-06T10:46:10;99898.50;;;20.76
74321;BMP280;62738;45.772;4.804;2023-08-06T10:48:45;99911.13;;;20.60
74321;BMP280;62738;45.772;4.804;2023-08-06T10:51:13;99902.13;;;20.94
74321;BMP280;62738;45.772;4.804;2023-08-06T10:53:44;99898.53;;;21.25
74321;BMP280;62738;45.772;4.804;2023-08-06T10:56:15;99904.94;;;20.94
74321;BMP280;62738;45.772;4.804;2023-08-06T10:58:43;99900.41;;;21.03
74321;BMP280;62738;45.772;4.804;2023-08-06T11:01:10;99885.75;;;21.07
74321;BMP280;62738;45.772;4.804;2023-08-06T11:03:38;99894.09;;;21.20
74321;BMP280;62738;45.772;4.804;2023-08-06T11:06:07;99891.06;;;21.32
74321;BMP280;62738;45.772;4.804;2023-08-06T11:08:38;99892.25;;;21.60
74321;BMP280;62738;45.772;4.804;2023-08-06T11:11:12;99889.91;;;21.21
74321;BMP280;62738;45.772;4.804;2023-08-06T11:13:44;99887.28;;;21.10
74321;BMP280;62738;45.772;4.804;2023-08-06T11:16:17;99897.22;;;20.95
74321;BMP280;62738;45.772;4.804;2023-08-06T11:18:45;99898.81;;;21.16
74321;BMP280;62738;45.772;4.804;2023-08-06T11:21:12;99903.28;;;21.21
74321;BMP280;62738;45.772;4.804;2023-08-06T11:23:39;99894.94;;;21.40
74321;BMP280;62738;45.772;4.804;2023-08-06T11:26:07;99908.94;;;21.72
74321;BMP280;62738;45.772;4.804;2023-08-06T11:28:34;99905.38;;;21.54
74321;BMP280;62738;45.772;4.804;2023-08-06T11:31:00;99906.69;;;21.68
74321;BMP280;62738;45.772;4.804;2023-08-06T11:33:30;99896.03;;;21.67
74321;BMP280;62738;45.772;4.804;2023-08-06T11:35:59;99893.28;;;21.69
74321;BMP280;62738;45.772;4.804;2023-08-06T11:38:28;99902.25;;;21.63
74321;BMP280;62738;45.772;4.804;2023-08-06T11:40:55;99894.38;;;21.44
74321;BMP280;62738;45.772;4.804;2023-08-06T11:43:21;99893.78;;;21.63
74321;BMP280;62738;45.772;4.804;2023-08-06T11:45:49;99896.53;;;21.96
74321;BMP280;62738;45.772;4.804;2023-08-06T11:48:17;99896.38;;;22.10
74321;BMP280;62738;45.772;4.804;2023-08-06T11:50:45;99894.13;;;21.38
74321;BMP280;62738;45.772;4.804;2023-08-06T11:53:13;99887.84;;;21.39
74321;BMP280;62738;45.772;4.804;2023-08-06T11:55:41;99900.03;;;21.11
74321;BMP280;62738;45.772;4.804;2023-08-06T11:58:09;99886.69;;;21.29
74321;BMP280;62738;45.772;4.804;2023-08-06T12:00:36;99898.16;;;21.84
74321;BMP280;62738;45.772;4.804;2023-08-06T12:03:04;99895.75;;;21.94
74321;BMP280;62738;45.772;4.804;2023-08-06T12:05:32;99883.38;;;22.03
74321;BMP280;62738;45.772;4.804;2023-08-06T12:08:02;99893.84;;;22.36
74321;BMP280;62738;45.772;4.804;2023-08-06T12:10:30;99886.72;;;22.35
74321;BMP280;62738;45.772;4.804;2023-08-06T12:12:57;99890.56;;;22.24
74321;BMP280;62738;45.772;4.804;2023-08-06T12:15:24;99895.09;;;21.78
74321;BMP280;62738;45.772;4.804;2023-08-06T12:17:51;99884.53;;;21.78
74321;BMP280;62738;45.772;4.804;2023-08-06T12:20:18;99872.44;;;21.93
74321;BMP280;62738;45.772;4.804;2023-08-06T12:22:44;99879.53;;;22.32
74321;BMP280;62738;45.772;4.804;2023-08-06T12:25:12;99884.91;;;22.24
74321;BMP280;62738;45.772;4.804;2023-08-06T12:27:41;99885.09;;;22.30
74321;BMP280;62738;45.772;4.804;2023-08-06T12:30:08;99896.84;;;22.05
74321;BMP280;62738;45.772;4.804;2023-08-06T12:32:37;99886.69;;;22.15
74321;BMP280;62738;45.772;4.804;2023-08-06T12:35:05;99894.84;;;22.25
74321;BMP280;62738;45.772;4.804;2023-08-06T12:37:33;99896.22;;;22.24
74321;BMP280;62738;45.772;4.804;2023-08-06T12:40:00;99893.16;;;22.55
74321;BMP280;62738;45.772;4.804;2023-08-06T12:42:47;99903.13;;;22.58
74321;BMP280;62738;45.772;4.804;2023-08-06T12:45:15;99894.97;;;22.66
74321;BMP280;62738;45.772;4.804;2023-08-06T12:47:42;99902.31;;;22.73
74321;BMP280;62738;45.772;4.804;2023-08-06T12:50:09;99893.00;;;22.51
74321;BMP280;62738;45.772;4.804;2023-08-06T12:52:35;99910.13;;;22.18
74321;BMP280;62738;45.772;4.804;2023-08-06T12:55:02;99899.53;;;22.01
74321;BMP280;62738;45.772;4.804;2023-08-06T12:57:29;99900.75;;;21.78
74321;BMP280;62738;45.772;4.804;2023-08-06T13:00:16;99911.78;;;22.07
74321;BMP280;62738;45.772;4.804;2023-08-06T13:02:43;99897.03;;;22.09
74321;BMP280;62738;45.772;4.804;2023-08-06T13:05:09;99890.56;;;22.24
74321;BMP280;62738;45.772;4.804;2023-08-06T13:07:36;99888.88;;;22.54
74321;BMP280;62738;45.772;4.804;2023-08-06T13:10:03;99880.03;;;22.64
74321;BMP280;62738;45.772;4.804;2023-08-06T13:12:30;99885.44;;;22.58
74321;BMP280;62738;45.772;4.804;2023-08-06T13:14:57;99895.69;;;22.47
74321;BMP280;62738;45.772;4.804;2023-08-06T13:17:25;99907.72;;;22.30
74321;BMP280;62738;45.772;4.804;2023-08-06T13:19:53;99896.50;;;22.32
74321;BMP280;62738;45.772;4.804;2023-08-06T13:22:20;99922.81;;;22.54
74321;BMP280;62738;45.772;4.804;2023-08-06T13:24:46;99906.50;;;22.35
74321;BMP280;62738;45.772;4.804;2023-08-06T13:27:13;99920.22;;;22.42
74321;BMP280;62738;45.772;4.804;2023-08-06T13:29:40;99921.38;;;22.00
74321;BMP280;62738;45.772;4.804;2023-08-06T13:32:06;99916.22;;;21.77
74321;BMP280;62738;45.772;4.804;2023-08-06T13:34:33;99906.38;;;21.78
74321;BMP280;62738;45.772;4.804;2023-08-06T13:36:59;99911.72;;;22.05
74321;BMP280;62738;45.772;4.804;2023-08-06T13:39:26;99909.75;;;22.27
74321;BMP280;62738;45.772;4.804;2023-08-06T13:41:53;99907.06;;;22.49
74321;BMP280;62738;45.772;4.804;2023-08-06T13:44:19;99897.56;;;22.60
74321;BMP280;62738;45.772;4.804;2023-08-06T13:46:46;99898.81;;;22.94
74321;BMP280;62738;45.772;4.804;2023-08-06T13:49:12;99905.31;;;23.19
74321;BMP280;62738;45.772;4.804;2023-08-06T13:51:39;99913.56;;;22.71
74321;BMP280;62738;45.772;4.804;2023-08-06T13:54:06;99894.03;;;22.99
74321;BMP280;62738;45.772;4.804;2023-08-06T13:56:34;99897.38;;;23.35
74321;BMP280;62738;45.772;4.804;2023-08-06T13:59:01;99883.81;;;23.53
74321;BMP280;62738;45.772;4.804;2023-08-06T14:01:28;99883.72;;;23.71
74321;BMP280;62738;45.772;4.804;2023-08-06T14:04:13;99889.22;;;23.88
74321;BMP280;62738;45.772;4.804;2023-08-06T14:06:39;99892.63;;;24.07
74321;BMP280;62738;45.772;4.804;2023-08-06T14:09:07;99895.78;;;24.42
74321;BMP280;62738;45.772;4.804;2023-08-06T14:11:34;99893.03;;;24.21
74321;BMP280;62738;45.772;4.804;2023-08-06T14:14:00;99897.03;;;24.35
74321;BMP280;62738;45.772;4.804;2023-08-06T14:16:29;99895.25;;;24.48
74321;BMP280;62738;45.772;4.804;2023-08-06T14:18:56;99886.81;;;24.26
74321;BMP280;62738;45.772;4.804;2023-08-06T14:21:23;99899.97;;;23.92
74321;BMP280;62738;45.772;4.804;2023-08-06T14:23:49;99908.41;;;23.68
74321;BMP280;62738;45.772;4.804;2023-08-06T14:26:16;99889.16;;;23.65